Orbital elements of COSMOS 2251 DEB
| Launched | 15 June 1993 |
| Flight ended | – |
| Launch site | Plesetsk Missile and Space Complex, Russia |
| Owner | Commonwealth of Independent States (former USSR) |
| NORAD ID | 36385 |
| Date fetched |
Epoch osculation |
Inc. [°] |
Ecc. | RA asc node [hr] |
Arg Peri. [°] |
Mean anom [°] |
Mean motion [rev/day] |
Abs. mag |
| Date fetched |
Epoch osculation |
Inc. [°] |
Ecc. | RA asc node [hr] |
Arg Peri. [°] |
Mean anom [°] |
Mean motion [rev/day] |
Abs. mag |
| 2026 May 08 17:57 | 2026 May 04 16:50:46 | 73.9694 | 0.01345 | 15.6106 | 14.0611 | 346.4247 | 14.76010 | – |
| 2026 May 07 17:58 | 2026 May 04 16:50:46 | 73.9694 | 0.01345 | 15.6106 | 14.0611 | 346.4247 | 14.76010 | – |
| 2026 May 06 17:57 | 2026 May 04 16:50:46 | 73.9694 | 0.01345 | 15.6106 | 14.0611 | 346.4247 | 14.76010 | – |
| 2026 May 05 17:57 | 2026 May 04 16:50:46 | 73.9694 | 0.01345 | 15.6106 | 14.0611 | 346.4247 | 14.76010 | – |
| 2026 May 04 17:57 | 2026 Apr 30 08:44:13 | 73.9689 | 0.01345 | 16.1791 | 23.7466 | 346.4247 | 14.76010 | – |
| 2026 May 03 17:57 | 2026 Apr 30 08:44:13 | 73.9689 | 0.01345 | 16.1791 | 23.7466 | 346.4247 | 14.76010 | – |
| 2026 May 02 17:57 | 2026 Apr 30 08:44:13 | 73.9689 | 0.01345 | 16.1791 | 23.7466 | 346.4247 | 14.76010 | – |
| 2026 May 01 17:56 | 2026 Apr 30 08:44:13 | 73.9689 | 0.01345 | 16.1791 | 23.7466 | 346.4247 | 14.76010 | – |
| 2026 Apr 30 17:56 | 2026 Apr 30 08:44:13 | 73.9689 | 0.01345 | 16.1791 | 23.7466 | 346.4247 | 14.76010 | – |
| 2026 Apr 29 17:57 | 2026 Apr 24 11:12:19 | 73.9683 | 0.01345 | 16.9520 | 36.9354 | 346.4247 | 14.76010 | – |
| 2026 Apr 28 17:56 | 2026 Apr 24 11:12:19 | 73.9683 | 0.01345 | 16.9520 | 36.9354 | 346.4247 | 14.76010 | – |
| 2026 Apr 27 17:58 | 2026 Apr 24 11:12:19 | 73.9683 | 0.01345 | 16.9520 | 36.9354 | 346.4247 | 14.76010 | – |
| 2026 Apr 26 17:58 | 2026 Apr 24 11:12:19 | 73.9683 | 0.01345 | 16.9520 | 36.9354 | 346.4247 | 14.76010 | – |
| 2026 Apr 25 17:58 | 2026 Apr 24 11:12:19 | 73.9683 | 0.01345 | 16.9520 | 36.9354 | 346.4247 | 14.76010 | – |
| 2026 Apr 24 17:59 | 2026 Apr 24 11:12:19 | 73.9683 | 0.01345 | 16.9520 | 36.9354 | 346.4247 | 14.76010 | – |
| 2026 Apr 23 17:57 | 2026 Apr 18 16:55:07 | 73.9682 | 0.01346 | 17.7069 | 49.8096 | 346.4247 | 14.76010 | – |
| 2026 Apr 22 17:57 | 2026 Apr 18 16:55:07 | 73.9682 | 0.01346 | 17.7069 | 49.8096 | 346.4247 | 14.76010 | – |
| 2026 Apr 21 17:57 | 2026 Apr 18 16:55:07 | 73.9682 | 0.01346 | 17.7069 | 49.8096 | 346.4247 | 14.76010 | – |
| 2026 Apr 20 17:57 | 2026 Apr 18 16:55:07 | 73.9682 | 0.01346 | 17.7069 | 49.8096 | 346.4247 | 14.76010 | – |
| 2026 Apr 19 17:58 | 2026 Apr 18 16:55:07 | 73.9682 | 0.01346 | 17.7069 | 49.8096 | 346.4247 | 14.76010 | – |
| 2026 Apr 18 17:56 | 2026 Apr 13 05:07:59 | 73.9677 | 0.01346 | 18.4264 | 62.0569 | 346.4247 | 14.76010 | – |
| 2026 Apr 16 17:57 | 2026 Apr 13 05:07:59 | 73.9677 | 0.01346 | 18.4264 | 62.0569 | 346.4247 | 14.76010 | – |
| 2026 Apr 14 17:57 | 2026 Apr 13 05:07:59 | 73.9677 | 0.01346 | 18.4264 | 62.0569 | 346.4247 | 14.76010 | – |
| 2026 Apr 13 17:57 | 2026 Apr 13 05:07:59 | 73.9677 | 0.01346 | 18.4264 | 62.0569 | 346.4247 | 14.76010 | – |
| 2026 Apr 12 17:57 | 2026 Apr 05 23:02:09 | 73.9681 | 0.01349 | 19.3769 | 78.1968 | 346.4247 | 14.76010 | – |
| 2026 Apr 11 17:57 | 2026 Apr 05 23:02:09 | 73.9681 | 0.01349 | 19.3769 | 78.1968 | 346.4247 | 14.76010 | – |